Data for 06/17/2013

Time Sea-Level Adjusted Pressure Absolute Pressure Temperature Relative Humidity Dew Point   
(mb) (inHg) (mb) (inHg) (C) (F) (%) (C) (F)
00:05 1022 30.18 851 25.13 14.8 58.7 59 6.9 44.4
00:10 1022 30.18 851 25.13 14.8 58.6 59 6.9 44.4
00:15 1022 30.18 851 25.13 14.7 58.5 59 6.8 44.3
00:20 1022 30.18 851 25.13 14.7 58.5 59 6.8 44.2
00:25 1022 30.18 851 25.13 14.6 58.4 59 6.8 44.2
00:30 1022 30.18 851 25.13 14.6 58.2 59 6.7 44.1
00:35 1022 30.18 851 25.13 14.5 58 59 6.7 44.1
00:40 1022 30.18 851 25.13 14.3 57.8 60 6.7 44
00:45 1022 30.18 851 25.13 14.3 57.8 59 6.6 43.8
00:50 1022 30.18 851 25.13 14.3 57.7 59 6.5 43.6
00:55 1022 30.18 851 25.13 14.3 57.7 59 6.5 43.7
01:00 1022 30.18 851 25.13 14.3 57.7 59 6.5 43.6
01:05 1022 30.18 851 25.13 14.3 57.7 59 6.3 43.4
01:10 1022 30.18 851 25.13 14.2 57.6 60 6.5 43.8
01:15 1022 30.18 851 25.13 14.1 57.4 60 6.4 43.5
01:20 1022 30.18 851 25.13 14 57.2 60 6.5 43.7
01:25 1022 30.18 851 25.13 13.9 56.9 61 6.4 43.6
01:30 1022 30.18 851 25.13 13.8 56.8 61 6.4 43.5
01:35 1022 30.18 851 25.13 13.7 56.7 61 6.5 43.7
01:40 1022 30.18 851 25.13 13.6 56.6 61 6.4 43.5
01:45 1022 30.18 851 25.13 13.6 56.5 62 6.6 43.8
01:50 1022 30.18 851 25.13 13.4 56.2 62 6.5 43.6
01:55 1022 30.18 851 25.13 13.4 56.1 62 6.4 43.6
02:00 1022 30.18 851 25.13 13.4 56.2 62 6.4 43.5
02:05 1022 30.18 851 25.13 13.4 56 63 6.4 43.6
02:10 1022 30.18 851 25.13 13.3 55.9 62 6.3 43.3
02:15 1022 30.18 851 25.13 13.3 56 63 6.4 43.5
02:20 1022 30.18 851 25.13 13.2 55.8 63 6.4 43.5
02:25 1022 30.18 851 25.13 13.2 55.7 63 6.4 43.6
02:30 1022 30.18 851 25.13 13 55.5 63 6.3 43.3
02:35 1022 30.18 851 25.13 13.1 55.5 63 6.3 43.3
02:40 1022 30.18 851 25.13 13 55.5 63 6.2 43.2
02:45 1022 30.18 851 25.13 13.1 55.5 63 6.1 43.1
02:50 1022 30.18 851 25.13 13 55.5 63 6.3 43.3
02:55 1022 30.18 851 25.13 13 55.4 63 6.2 43.1
03:00 1022 30.18 851 25.13 13 55.5 63 6.2 43.2
03:05 1022 30.18 851 25.13 13 55.5 63 6.3 43.3
03:10 1022 30.18 851 25.13 12.9 55.3 63 6.2 43.1
03:15 1022 30.18 851 25.13 12.9 55.2 63 6.2 43.1
03:20 1022 30.18 851 25.13 12.9 55.2 64 6.2 43.2
03:25 1022 30.18 851 25.13 12.9 55.1 63 6.1 43
03:30 1022 30.18 851 25.13 12.9 55.1 63 6.1 43
03:35 1022 30.18 851 25.13 12.8 55 63 6 42.9
03:40 1022 30.18 851 25.13 12.7 54.9 64 6.1 43
03:45 1022 30.18 851 25.13 12.7 54.9 64 6.1 43
03:50 1022 30.18 851 25.13 12.7 54.8 64 6.1 43
03:55 1022 30.18 851 25.13 12.6 54.6 65 6.2 43.2
04:00 1022 30.18 851 25.13 12.4 54.3 66 6.3 43.3
04:05 1022 30.18 851 25.13 12.2 54 66 6.1 43
04:10 1022 30.18 851 25.13 12.1 53.8 66 6.1 42.9
04:15 1022 30.18 851 25.13 12.2 54 66 6.1 43
04:20 1022 30.18 851 25.13 12.3 54.2 65 6 42.8
04:25 1022 30.18 851 25.13 12.4 54.4 65 6 42.9
04:30 1022 30.18 851 25.13 12.5 54.4 65 6.1 42.9
04:35 1022 30.18 851 25.13 12.5 54.6 64 6 42.8
04:40 1022 30.18 851 25.13 12.5 54.5 65 6.1 43
04:45 1022 30.18 851 25.13 12.4 54.4 64 6 42.7
04:50 1022 30.18 851 25.13 12.5 54.4 64 6 42.8
04:55 1022 30.18 851 25.13 12.5 54.5 64 6 42.8
05:00 1022 30.18 851 25.13 12.5 54.4 65 6 42.8
05:05 1022 30.18 851 25.13 12.5 54.6 65 6.1 43
05:10 1022 30.18 851 25.13 12.6 54.6 64 6.1 43
05:15 1022 30.18 851 25.13 12.6 54.7 64 6.1 43
05:20 1022 30.18 851 25.13 12.6 54.7 64 6.1 42.9
05:25 1022 30.18 851 25.13 12.6 54.7 64 6.1 43.1
05:30 1022 30.18 851 25.13 12.6 54.7 64 6.2 43.1
05:35 1022 30.18 851 25.13 12.7 54.8 64 6.2 43.1
05:40 1022 30.18 851 25.13 12.7 54.8 64 6.1 43
05:45 1022 30.18 851 25.13 12.8 55 64 6.2 43.2
05:50 1022 30.18 851 25.13 12.8 55 65 6.3 43.4
05:55 1022 30.18 851 25.13 12.8 55.1 64 6.3 43.4
06:00 1022 30.18 851 25.13 12.9 55.2 64 6.4 43.5
06:05 1022 30.18 851 25.13 12.9 55.2 64 6.4 43.5
06:10 1022 30.18 851 25.13 13 55.4 64 6.4 43.6
06:15 1022 30.18 851 25.13 13.2 55.7 64 6.5 43.7
06:20 1022 30.18 851 25.13 13.3 56 63 6.5 43.8
06:25 1022 30.18 851 25.13 13.4 56.1 63 6.5 43.8
06:30 1022 30.18 851 25.13 13.4 56.2 62 6.4 43.6
06:35 1022 30.18 851 25.13 13.6 56.5 62 6.5 43.7
06:40 1022 30.18 851 25.13 13.7 56.7 61 6.5 43.7
06:45 1022 30.18 851 25.13 14 57.1 61 6.5 43.8
06:50 1022 30.18 851 25.13 14.2 57.5 60 6.6 43.8
06:55 1022 30.18 851 25.13 14.2 57.6 60 6.6 43.9
07:00 1022 30.18 851 25.13 14.4 58 59 6.6 43.9
07:05 1022 30.18 851 25.13 14.6 58.3 58 6.6 43.8
07:10 1022 30.18 851 25.13 14.9 58.7 58 6.8 44.2
07:15 1022 30.18 851 25.13 14.9 58.9 58 6.7 44.1
07:20 1022 30.18 851 25.13 15 58.9 57 6.6 43.8
07:25 1022 30.18 851 25.13 15 59 56 6.4 43.6
07:30 1022 30.18 851 25.13 15.2 59.4 56 6.6 43.9
07:35 1022 30.18 851 25.13 15.5 59.9 56 6.8 44.2
07:40 1022 30.18 851 25.13 15.4 59.7 56 6.7 44
07:45 1022 30.18 851 25.13 15.5 59.9 55 6.7 44.1
07:50 1022 30.18 851 25.13 15.5 59.8 56 6.8 44.2
07:55 1022 30.18 851 25.13 15.6 60.1 55 6.8 44.3
08:00 1022 30.18 851 25.13 15.8 60.5 56 7 44.7
08:05 1022 30.18 851 25.13 15.9 60.6 55 7 44.6
08:10 1022 30.18 851 25.13 16.1 60.9 55 7 44.6
08:15 1022 30.18 851 25.13 16.6 62 52 7 44.5
08:20 1022 30.18 851 25.13 17 62.6 52 7.2 45
08:25 1022 30.18 851 25.13 17.3 63.1 50 7 44.6
08:30 1022 30.18 851 25.13 17.3 63.1 51 7.3 45.1
08:35 1022 30.18 851 25.13 17.6 63.6 50 7.1 44.8
08:40 1022 30.18 851 25.13 17.6 63.7 49 7 44.5
08:45 1022 30.18 851 25.13 18.2 64.8 48 7.1 44.7
08:50 1022 30.18 851 25.13 18.3 64.9 48 7 44.7
08:55 1022 30.18 851 25.13 18.4 65.1 48 7.2 45
09:00 1022 30.18 851 25.13 18.2 64.7 51 7.8 46.1
09:05 1022 30.18 851 25.13 18.1 64.6 51 8.1 46.5
09:10 1022 30.18 851 25.13 18.6 65.4 50 8 46.4
09:15 1022 30.18 851 25.13 18.9 65.9 51 8.5 47.3
09:20 1022 30.18 851 25.13 18.5 65.2 51 8.4 47.1
09:25 1022 30.18 851 25.13 18.4 65.2 52 8.5 47.3
09:30 1022 30.18 851 25.13 18.5 65.4 51 8.3 47
09:35 1022 30.18 851 25.13 18.1 64.5 53 8.3 47
09:40 1022 30.18 851 25.13 18.2 64.7 50 7.8 46.1
09:45 1022 30.18 851 25.13 18.8 65.8 52 8.7 47.7
09:50 1022 30.18 851 25.13 19 66.2 50 8.5 47.2
09:55 1021 30.15 851 25.13 19.3 66.7 48 8.2 46.7
10:00 1021 30.15 851 25.13 20.2 68.3 45 8.1 46.6
10:05 1021 30.15 851 25.13 20.5 69 43 7.6 45.8
10:10 1021 30.15 851 25.13 20 67.9 48 8.6 47.6
10:15 1021 30.15 851 25.13 20.4 68.7 42 7.2 45
10:20 1021 30.15 851 25.13 20.5 68.8 41 7 44.5
10:25 1021 30.15 850 25.1 20.6 69.1 44 8.1 46.5
10:30 1021 30.15 850 25.1 20.7 69.3 41 7.2 44.9
10:35 1021 30.15 850 25.1 20.5 68.8 41 6.8 44.2
10:40 1021 30.15 850 25.1 20.4 68.6 42 7 44.6
10:45 1021 30.15 850 25.1 20.5 69 40 6.7 44.1
10:50 1021 30.15 850 25.1 20.9 69.5 41 7.2 44.9
10:55 1021 30.15 850 25.1 21.1 70 38 6.3 43.4
11:00 1021 30.15 850 25.1 21 69.8 38 6.3 43.4
11:05 1021 30.15 850 25.1 21.1 70 38 6.3 43.4
11:10 1021 30.15 850 25.1 21.2 70.2 38 6.7 44
11:15 1021 30.15 850 25.1 21.2 70.2 39 6.7 44.1
11:20 1021 30.15 850 25.1 21.5 70.8 37 6.5 43.6
11:25 1021 30.15 850 25.1 21.4 70.5 36 6 42.8
11:30 1021 30.15 850 25.1 21.5 70.7 37 6.4 43.6
11:35 1021 30.15 850 25.1 22 71.6 34 5.6 42
11:40 1021 30.15 850 25.1 22 71.6 33 5.2 41.3
11:45 1021 30.15 850 25.1 22.3 72.2 34 5.9 42.6
11:50 1021 30.15 850 25.1 22.3 72.1 34 5.8 42.4
11:55 1020 30.12 850 25.1 22.6 72.7 33 5.9 42.6
12:00 1020 30.12 850 25.1 22.4 72.3 34 6.1 42.9
12:05 1020 30.12 850 25.1 22.9 73.2 33 6 42.8
12:10 1020 30.12 850 25.1 23 73.3 33 6.1 42.9
12:15 1020 30.12 849 25.07 23.1 73.5 33 6.3 43.3
12:20 1020 30.12 849 25.07 23.1 73.5 34 6.5 43.7
12:25 1020 30.12 849 25.07 23 73.5 34 6.6 43.8
12:30 1020 30.12 849 25.07 23.4 74.1 35 7.2 44.9
12:35 1020 30.12 849 25.07 23.4 74.2 35 7.4 45.3
12:40 1020 30.12 849 25.07 23.7 74.7 34 7.3 45.2
12:45 1020 30.12 849 25.07 23.6 74.4 34 7 44.6
12:50 1020 30.12 849 25.07 23.5 74.2 36 7.9 46.2
12:55 1020 30.12 849 25.07 23.4 74.1 35 7.4 45.4
13:00 1020 30.12 849 25.07 23.4 74 35 7.3 45.2
13:05 1020 30.12 849 25.07 23.3 73.9 35 7.1 44.7
13:10 1020 30.12 849 25.07 23.3 73.9 33 6.5 43.7
13:15 1020 30.12 849 25.07 23.3 74 34 6.9 44.4
13:20 1020 30.12 849 25.07 23.7 74.6 33 6.7 44
13:25 1020 30.12 849 25.07 23.3 74 34 6.8 44.2
13:30 1020 30.12 849 25.07 23.5 74.3 34 6.9 44.4
13:35 1020 30.12 849 25.07 23.4 74.2 34 6.9 44.3
13:40 1019 30.09 849 25.07 23.5 74.2 35 7.5 45.5
13:45 1019 30.09 849 25.07 24.2 75.6 32 6.9 44.5
13:50 1019 30.09 849 25.07 24 75.2 33 7.1 44.8
13:55 1019 30.09 849 25.07 24.3 75.7 30 5.8 42.5
14:00 1019 30.09 849 25.07 24.3 75.8 34 7.5 45.5
14:05 1019 30.09 849 25.07 24.2 75.5 33 6.9 44.5
14:10 1019 30.09 848 25.04 24 75.2 32 6.6 43.8
14:15 1019 30.09 848 25.04 24.3 75.8 34 7.5 45.5
14:20 1019 30.09 848 25.04 24.3 75.7 33 7 44.6
14:25 1019 30.09 848 25.04 24.2 75.5 31 6.4 43.5
14:30 1019 30.09 848 25.04 24.4 76 27 4.2 39.6
14:35 1019 30.09 848 25.04 24.4 75.8 28 4.8 40.7
14:40 1019 30.09 848 25.04 24.7 76.4 28 5.4 41.6
14:45 1019 30.09 848 25.04 25 76.9 30 6.3 43.3
14:50 1019 30.09 848 25.04 25.1 77.2 29 6.1 43
14:55 1019 30.09 848 25.04 24.8 76.7 29 5.8 42.5
15:00 1019 30.09 848 25.04 25.2 77.4 28 5.8 42.4
15:05 1019 30.09 848 25.04 25.2 77.4 29 6.2 43.2
15:10 1019 30.09 848 25.04 25.1 77.1 27 5 41
15:15 1018 30.06 848 25.04 25.1 77.2 28 5.4 41.7
15:20 1018 30.06 848 25.04 24.8 76.7 31 6.8 44.2
15:25 1018 30.06 848 25.04 25.1 77.1 30 6.6 43.8
15:30 1018 30.06 848 25.04 25 77.1 29 5.9 42.6
15:35 1018 30.06 848 25.04 25.2 77.4 30 6.7 44
15:40 1018 30.06 848 25.04 25.9 78.5 27 6 42.7
15:45 1018 30.06 847 25.01 25.8 78.5 28 6.2 43.2
15:50 1018 30.06 847 25.01 25 77 30 6.6 43.9
15:55 1018 30.06 847 25.01 24.7 76.4 29 5.5 41.8
16:00 1018 30.06 847 25.01 24.5 76.2 31 6.5 43.7
16:05 1018 30.06 847 25.01 24.2 75.5 32 6.8 44.3
16:10 1018 30.06 847 25.01 24.1 75.3 32 6.5 43.7
16:15 1018 30.06 847 25.01 24.4 75.9 31 6.6 43.9
16:20 1018 30.06 847 25.01 24.7 76.5 30 6.2 43.2
16:25 1018 30.06 847 25.01 24.8 76.7 30 6.5 43.7
16:30 1018 30.06 847 25.01 25.4 77.6 30 6.7 44
16:35 1018 30.06 847 25.01 24.8 76.7 30 6.2 43.1
16:40 1018 30.06 847 25.01 24.6 76.3 29 5.7 42.2
16:45 1018 30.06 847 25.01 24.6 76.2 30 6.1 43
16:50 1018 30.06 847 25.01 24.4 75.9 29 5.6 42
16:55 1018 30.06 847 25.01 24.3 75.7 28 5 41.1
17:00 1018 30.06 847 25.01 24.4 75.9 30 5.8 42.5
17:05 1018 30.06 847 25.01 24.5 76.1 28 5.1 41.2
17:10 1018 30.06 847 25.01 24.4 75.9 29 5.5 41.9
17:15 1018 30.06 847 25.01 24.5 76 30 5.9 42.7
17:20 1018 30.06 847 25.01 24.3 75.7 29 5.3 41.6
17:25 1018 30.06 847 25.01 23.9 75 31 5.8 42.5
17:30 1018 30.06 847 25.01 23.9 74.9 30 5.5 42
17:35 1018 30.06 847 25.01 24.1 75.4 30 5.5 41.9
17:40 1018 30.06 847 25.01 24.1 75.3 29 5.4 41.7
17:45 1017 30.03 847 25.01 23.9 75 29 5.2 41.4
17:50 1017 30.03 847 25.01 23.8 74.8 30 5.3 41.5
17:55 1017 30.03 847 25.01 23.5 74.3 30 5.3 41.6
18:00 1017 30.03 847 25.01 23.2 73.8 31 5.3 41.5
18:05 1017 30.03 846 24.98 23.3 74 30 5.2 41.3
18:10 1017 30.03 846 24.98 23.4 74.1 29 4.7 40.5
18:15 1017 30.03 846 24.98 23.4 74.1 29 4.8 40.6
18:20 1017 30.03 846 24.98 23.3 73.9 31 5.6 42.1
18:25 1017 30.03 846 24.98 23.2 73.7 32 5.9 42.6
18:30 1017 30.03 846 24.98 23 73.4 34 6.3 43.4
18:35 1017 30.03 846 24.98 22.9 73.2 33 6 42.7
18:40 1017 30.03 846 24.98 22.8 73.1 34 6.2 43.2
18:45 1017 30.03 846 24.98 22.7 72.9 34 6.1 43
18:50 1017 30.03 846 24.98 22.5 72.5 34 5.9 42.7
18:55 1017 30.03 846 24.98 22.5 72.4 35 6.3 43.3
19:00 1017 30.03 846 24.98 22.4 72.3 36 6.6 43.9
19:05 1017 30.03 846 24.98 22.3 72.1 36 6.7 44.1
19:10 1017 30.03 846 24.98 22.1 71.8 37 7 44.6
19:15 1017 30.03 846 24.98 22 71.5 37 6.9 44.4
19:20 1017 30.03 846 24.98 21.9 71.3 38 7 44.6
19:25 1017 30.03 846 24.98 21.8 71.2 38 7 44.5
19:30 1017 30.03 846 24.98 21.7 71 38 6.9 44.4
19:35 1017 30.03 846 24.98 21.6 70.8 39 7.1 44.8
19:40 1017 30.03 846 24.98 21.4 70.5 40 7.4 45.4
19:45 1017 30.03 846 24.98 21.2 70.2 41 7.6 45.7
19:50 1017 30.03 846 24.98 21 69.8 42 7.7 45.9
19:55 1017 30.03 846 24.98 20.8 69.5 42 7.7 45.9
20:00 1017 30.03 846 24.98 20.6 69.1 43 7.8 46.1
20:05 1017 30.03 846 24.98 20.5 68.8 44 7.9 46.1
20:10 1017 30.03 846 24.98 20.4 68.7 45 8.1 46.6
20:15 1017 30.03 846 24.98 20.2 68.3 46 8.3 47
20:20 1017 30.03 846 24.98 20 68.1 47 8.5 47.3
20:25 1017 30.03 846 24.98 19.9 67.7 48 8.7 47.7
20:30 1017 30.03 846 24.98 19.7 67.5 49 8.8 47.9
20:35 1017 30.03 846 24.98 19.8 67.6 49 8.9 48
20:40 1017 30.03 846 24.98 19.7 67.4 50 9.1 48.4
20:45 1017 30.03 846 24.98 19.6 67.2 51 9.2 48.5
20:50 1017 30.03 846 24.98 19.5 67 52 9.4 49
20:55 1017 30.03 846 24.98 19.4 66.8 52 9.3 48.8
21:00 1017 30.03 846 24.98 19.4 66.8 52 9.5 49.1
21:05 1017 30.03 846 24.98 19.4 66.9 53 9.6 49.2
21:10 1017 30.03 846 24.98 19.2 66.6 53 9.7 49.4
21:15 1017 30.03 846 24.98 19.1 66.4 54 9.6 49.3
21:20 1017 30.03 846 24.98 19.2 66.5 53 9.5 49
21:25 1017 30.03 846 24.98 19.2 66.6 53 9.6 49.2
21:30 1017 30.03 846 24.98 19.1 66.4 54 9.7 49.4
21:35 1017 30.03 846 24.98 19 66.1 54 9.6 49.3
21:40 1017 30.03 846 24.98 18.9 65.9 54 9.6 49.3
21:45 1017 30.03 846 24.98 18.8 65.9 55 9.8 49.6
21:50 1017 30.03 846 24.98 18.8 65.9 55 9.7 49.5
21:55 1017 30.03 846 24.98 18.8 65.8 55 9.8 49.6
22:00 1017 30.03 846 24.98 18.8 65.8 55 9.7 49.5
22:05 1017 30.03 846 24.98 18.8 65.9 55 9.8 49.6
22:10 1017 30.03 846 24.98 18.8 65.8 55 9.8 49.6
22:15 1017 30.03 846 24.98 18.7 65.7 55 9.7 49.5
22:20 1017 30.03 846 24.98 18.7 65.6 56 9.8 49.7
22:25 1017 30.03 846 24.98 18.7 65.6 56 9.9 49.7
22:30 1017 30.03 846 24.98 18.6 65.5 56 9.7 49.5
22:35 1017 30.03 846 24.98 18.6 65.4 56 9.7 49.5
22:40 1017 30.03 846 24.98 18.5 65.4 56 9.8 49.6
22:45 1017 30.03 846 24.98 18.5 65.3 57 9.8 49.7
22:50 1017 30.03 846 24.98 18.4 65.1 57 9.8 49.7
22:55 1017 30.03 846 24.98 18.3 64.9 57 9.8 49.7
23:00 1017 30.03 846 24.98 18.1 64.6 58 9.8 49.7
23:05 1017 30.03 846 24.98 18.1 64.5 58 9.8 49.7
23:10 1017 30.03 846 24.98 18 64.3 59 9.9 49.8
23:15 1017 30.03 846 24.98 17.9 64.2 59 9.9 49.9
23:20 1017 30.03 846 24.98 17.8 64 60 9.9 49.9
23:25 1017 30.03 846 24.98 17.7 63.8 60 9.8 49.7
23:30 1017 30.03 846 24.98 17.7 63.8 60 9.8 49.6
23:35 1017 30.03 846 24.98 17.6 63.6 60 9.8 49.6
23:40 1017 30.03 846 24.98 17.6 63.7 60 9.9 49.8
23:45 1017 30.03 846 24.98 17.4 63.3 61 9.8 49.6
23:50 1017 30.03 846 24.98 17.4 63.3 61 9.8 49.6
23:55 1017 30.03 846 24.98 17.3 63.2 61 9.8 49.7
24:00 1017 30.03 846 24.98 17.3 63.1 61 9.7 49.5